createdAt,value
2023-03-29T00:00:38.330Z,0.51
2023-03-29T00:01:38.354Z,0.51
2023-03-29T00:02:38.493Z,0.52
2023-03-29T00:03:38.481Z,0.51
2023-03-29T00:04:38.420Z,0.51
2023-03-29T00:05:39.030Z,0.51
2023-03-29T00:06:38.457Z,0.51
2023-03-29T00:07:38.466Z,0.51
2023-03-29T00:08:38.489Z,0.50
2023-03-29T00:09:38.569Z,0.52
2023-03-29T00:10:38.524Z,0.50
2023-03-29T00:11:38.562Z,0.51
2023-03-29T00:12:38.576Z,0.51
2023-03-29T00:13:38.590Z,0.52
2023-03-29T00:14:38.639Z,0.50
2023-03-29T00:15:38.655Z,0.51
2023-03-29T00:16:38.727Z,0.51
2023-03-29T00:17:38.725Z,0.51
2023-03-29T00:18:38.742Z,0.51
2023-03-29T00:19:38.773Z,0.51
2023-03-29T00:20:38.787Z,0.51
2023-03-29T00:21:38.811Z,0.51
2023-03-29T00:22:38.821Z,0.50
2023-03-29T00:23:38.851Z,0.50
2023-03-29T00:24:38.937Z,0.51
2023-03-29T00:25:38.897Z,0.50
2023-03-29T00:26:38.939Z,0.52
2023-03-29T00:27:38.962Z,0.51
2023-03-29T00:28:38.991Z,0.51
2023-03-29T00:29:39.009Z,0.51
2023-03-29T00:30:39.056Z,0.51
2023-03-29T00:31:39.136Z,0.51
2023-03-29T00:32:39.144Z,0.51
2023-03-29T00:33:39.201Z,0.51
2023-03-29T00:34:39.278Z,0.51
2023-03-29T00:35:39.211Z,0.50
2023-03-29T00:36:39.220Z,0.52
2023-03-29T00:37:39.263Z,0.52
2023-03-29T00:38:39.271Z,0.51
2023-03-29T00:39:39.305Z,0.52
2023-03-29T00:40:39.345Z,0.51
2023-03-29T00:41:39.375Z,0.52
2023-03-29T00:42:39.422Z,0.52
2023-03-29T00:43:39.423Z,0.51
2023-03-29T00:44:39.462Z,0.51
2023-03-29T00:45:39.490Z,0.51
2023-03-29T00:46:39.535Z,0.52
2023-03-29T00:47:39.672Z,0.51
2023-03-29T00:48:39.646Z,0.51
2023-03-29T00:49:39.615Z,0.51
2023-03-29T00:50:40.077Z,0.51
2023-03-29T00:51:39.649Z,0.50
2023-03-29T00:52:39.688Z,0.50
2023-03-29T00:53:39.718Z,0.51
2023-03-29T00:54:39.753Z,0.51
2023-03-29T00:55:39.779Z,0.51
2023-03-29T00:56:40.023Z,0.50
2023-03-29T00:57:39.852Z,0.52
2023-03-29T00:58:39.870Z,0.51
2023-03-29T00:59:39.898Z,0.50
2023-03-29T01:00:39.931Z,0.50
2023-03-29T01:01:40.029Z,0.51
2023-03-29T01:02:40.130Z,0.52
2023-03-29T01:03:40.103Z,0.51
2023-03-29T01:04:40.064Z,0.51
2023-03-29T01:05:40.084Z,0.51
2023-03-29T01:06:40.142Z,0.52
2023-03-29T01:07:40.149Z,0.51
2023-03-29T01:08:40.228Z,0.51
2023-03-29T01:09:40.220Z,0.51
2023-03-29T01:10:40.245Z,0.50
2023-03-29T01:11:40.291Z,0.52
2023-03-29T01:12:40.308Z,0.51
2023-03-29T01:13:40.332Z,0.51
2023-03-29T01:14:40.376Z,0.51
2023-03-29T01:15:40.419Z,0.51
2023-03-29T01:16:40.487Z,0.51
2023-03-29T01:17:40.556Z,0.51
2023-03-29T01:18:40.519Z,0.51
2023-03-29T01:19:40.563Z,0.52
2023-03-29T01:20:40.584Z,0.52
2023-03-29T01:21:40.627Z,0.51
2023-03-29T01:22:40.654Z,0.51
2023-03-29T01:23:40.699Z,0.51
2023-03-29T01:24:40.724Z,0.52
2023-03-29T01:25:40.762Z,0.52
2023-03-29T01:26:40.804Z,0.52
2023-03-29T01:27:40.843Z,0.52
2023-03-29T01:28:40.879Z,0.52
2023-03-29T01:29:40.913Z,0.51
2023-03-29T01:30:41.571Z,0.51
2023-03-29T01:31:41.079Z,0.51
2023-03-29T01:32:41.114Z,0.52
2023-03-29T01:33:41.063Z,0.51
2023-03-29T01:34:41.177Z,0.53
2023-03-29T01:35:41.167Z,0.53
2023-03-29T01:36:41.173Z,0.51
2023-03-29T01:37:41.233Z,0.52
2023-03-29T01:38:41.265Z,0.52
2023-03-29T01:39:41.375Z,0.51
2023-03-29T01:40:41.424Z,0.52
2023-03-29T01:41:41.361Z,0.52
2023-03-29T01:42:41.396Z,0.51
2023-03-29T01:43:41.447Z,0.51
2023-03-29T01:44:41.502Z,0.51
2023-03-29T01:45:41.561Z,0.51
2023-03-29T01:46:41.559Z,0.51
2023-03-29T01:47:41.618Z,0.51
2023-03-29T01:48:41.655Z,0.52
2023-03-29T01:49:41.676Z,0.50
2023-03-29T01:50:41.725Z,0.51
2023-03-29T01:51:41.768Z,0.51
2023-03-29T01:52:41.822Z,0.52
2023-03-29T01:53:41.863Z,0.52
2023-03-29T01:54:41.906Z,0.52
2023-03-29T01:55:41.964Z,0.51
2023-03-29T01:56:42.021Z,0.50
2023-03-29T01:57:42.044Z,0.51
2023-03-29T01:58:42.080Z,0.51
2023-03-29T01:59:42.124Z,0.51
2023-03-29T02:00:42.181Z,0.51
2023-03-29T02:01:42.286Z,0.51
2023-03-29T02:02:42.723Z,0.52
2023-03-29T02:03:42.504Z,0.51
2023-03-29T02:04:42.335Z,0.51
2023-03-29T02:05:42.416Z,0.52
2023-03-29T02:06:42.440Z,0.52
2023-03-29T02:07:42.536Z,0.52
2023-03-29T02:08:42.509Z,0.51
2023-03-29T02:09:42.559Z,0.51
2023-03-29T02:10:42.697Z,0.51
2023-03-29T02:11:42.683Z,0.51
2023-03-29T02:12:42.694Z,0.51
2023-03-29T02:13:42.764Z,0.52
2023-03-29T02:14:42.768Z,0.51
2023-03-29T02:15:42.884Z,0.51
2023-03-29T02:16:42.872Z,0.51
2023-03-29T02:17:42.921Z,0.51
2023-03-29T02:18:42.952Z,0.50
2023-03-29T02:19:42.994Z,0.52
2023-03-29T02:20:43.040Z,0.51
2023-03-29T02:21:43.075Z,0.50
2023-03-29T02:22:43.115Z,0.51
2023-03-29T02:23:43.177Z,0.50
2023-03-29T02:24:43.209Z,0.53
2023-03-29T02:25:43.347Z,0.51
2023-03-29T02:26:43.312Z,0.52
2023-03-29T02:27:43.352Z,0.50
2023-03-29T02:28:43.381Z,0.52
2023-03-29T02:29:43.428Z,0.51
2023-03-29T02:30:43.488Z,0.50
2023-03-29T02:31:43.611Z,0.51
2023-03-29T02:32:43.610Z,0.51
2023-03-29T02:33:43.611Z,0.52
2023-03-29T02:34:43.668Z,0.52
2023-03-29T02:35:43.708Z,0.50
2023-03-29T02:36:44.135Z,0.52
2023-03-29T02:37:43.772Z,0.51
2023-03-29T02:38:43.814Z,0.52
2023-03-29T02:39:43.926Z,0.52
2023-03-29T02:40:43.919Z,0.52
2023-03-29T02:41:43.951Z,0.52
2023-03-29T02:42:44.012Z,0.50
2023-03-29T02:43:44.047Z,0.50
2023-03-29T02:44:44.128Z,0.51
2023-03-29T02:45:44.154Z,0.50
2023-03-29T02:46:44.274Z,0.50
2023-03-29T02:47:44.339Z,0.52
2023-03-29T02:48:44.607Z,0.51
2023-03-29T02:49:44.384Z,0.52
2023-03-29T02:50:44.433Z,0.52
2023-03-29T02:51:44.499Z,0.51
2023-03-29T02:52:44.528Z,0.52
2023-03-29T02:53:44.685Z,0.50
2023-03-29T02:54:44.643Z,0.52
2023-03-29T02:55:44.702Z,0.52
2023-03-29T02:56:44.846Z,0.51
2023-03-29T02:57:44.817Z,0.52
2023-03-29T02:58:44.859Z,0.52
2023-03-29T02:59:44.921Z,0.51
2023-03-29T03:00:44.972Z,0.52
2023-03-29T03:01:45.137Z,0.51
2023-03-29T03:02:45.125Z,0.52
2023-03-29T03:03:46.197Z,0.51
2023-03-29T03:04:45.188Z,0.52
2023-03-29T03:05:46.127Z,0.52
2023-03-29T03:06:45.296Z,0.53
2023-03-29T03:07:46.165Z,0.52
2023-03-29T03:08:45.462Z,0.52
2023-03-29T03:09:45.457Z,0.52
2023-03-29T03:10:45.498Z,0.52
2023-03-29T03:11:45.579Z,0.52
2023-03-29T03:12:45.616Z,0.51
2023-03-29T03:13:45.675Z,0.51
2023-03-29T03:14:46.612Z,0.51
2023-03-29T03:15:45.762Z,0.51
2023-03-29T03:16:45.906Z,0.52
2023-03-29T03:17:45.872Z,0.52
2023-03-29T03:18:45.972Z,0.52
2023-03-29T03:19:45.967Z,0.52
2023-03-29T03:20:46.028Z,0.52
2023-03-29T03:21:46.068Z,0.52
2023-03-29T03:22:46.125Z,0.51
2023-03-29T03:23:46.179Z,0.51
2023-03-29T03:24:46.228Z,0.52
2023-03-29T03:25:46.289Z,0.51
2023-03-29T03:26:46.394Z,0.51
2023-03-29T03:27:46.416Z,0.52
2023-03-29T03:28:46.469Z,0.52
2023-03-29T03:29:46.509Z,0.51
2023-03-29T03:30:46.565Z,0.51
2023-03-29T03:31:47.642Z,0.51
2023-03-29T03:32:46.701Z,0.50
2023-03-29T03:33:46.743Z,0.51
2023-03-29T03:34:46.785Z,0.52
2023-03-29T03:35:46.872Z,0.51
2023-03-29T03:36:47.124Z,0.51
2023-03-29T03:37:46.973Z,0.52
2023-03-29T03:38:47.034Z,0.50
2023-03-29T03:39:47.081Z,0.50
2023-03-29T03:40:47.142Z,0.51
2023-03-29T03:41:47.288Z,0.51
2023-03-29T03:42:47.247Z,0.53
2023-03-29T03:43:47.334Z,0.51
2023-03-29T03:44:47.372Z,0.52
2023-03-29T03:45:47.504Z,0.52
2023-03-29T03:46:47.489Z,0.52
2023-03-29T03:47:47.605Z,0.51
2023-03-29T03:48:47.617Z,0.52
2023-03-29T03:49:47.683Z,0.51
2023-03-29T03:50:47.738Z,0.52
2023-03-29T03:51:47.800Z,0.52
2023-03-29T03:52:47.867Z,0.52
2023-03-29T03:53:47.929Z,0.53
2023-03-29T03:54:47.979Z,0.51
2023-03-29T03:55:48.043Z,0.51
2023-03-29T03:56:48.121Z,0.52
2023-03-29T03:57:48.169Z,0.52
2023-03-29T03:58:48.230Z,0.51
2023-03-29T03:59:48.298Z,0.52
2023-03-29T04:00:48.351Z,0.51
2023-03-29T04:01:48.431Z,0.51
2023-03-29T04:02:48.680Z,0.52
2023-03-29T04:03:48.623Z,0.51
2023-03-29T04:04:48.729Z,0.51
2023-03-29T04:05:48.678Z,0.51
2023-03-29T04:06:48.724Z,0.50
2023-03-29T04:07:48.878Z,0.52
2023-03-29T04:08:48.917Z,0.51
2023-03-29T04:09:48.918Z,0.50
2023-03-29T04:10:48.981Z,0.52
2023-03-29T04:11:49.040Z,0.51
2023-03-29T04:12:49.143Z,0.51
2023-03-29T04:13:49.166Z,0.51
2023-03-29T04:14:49.235Z,0.50
2023-03-29T04:15:49.319Z,0.52
2023-03-29T04:16:49.353Z,0.51
2023-03-29T04:17:49.502Z,0.51
2023-03-29T04:18:49.498Z,0.51
2023-03-29T04:19:49.534Z,0.51
2023-03-29T04:20:49.594Z,0.51
2023-03-29T04:21:49.659Z,0.52
2023-03-29T04:22:49.718Z,0.51
2023-03-29T04:23:49.831Z,0.52
2023-03-29T04:24:49.844Z,0.52
2023-03-29T04:25:49.913Z,0.50
2023-03-29T04:26:49.986Z,0.50
2023-03-29T04:27:50.053Z,0.53
2023-03-29T04:28:50.106Z,0.51
2023-03-29T04:29:50.158Z,0.51
2023-03-29T04:30:50.243Z,0.50
2023-03-29T04:31:50.311Z,0.50
2023-03-29T04:32:50.482Z,0.50
2023-03-29T04:33:50.363Z,0.51
2023-03-29T04:34:50.435Z,0.52
2023-03-29T04:35:50.633Z,0.52
2023-03-29T04:36:50.573Z,0.50
2023-03-29T04:37:50.611Z,0.51
2023-03-29T04:38:51.634Z,0.51
2023-03-29T04:39:50.737Z,0.52
2023-03-29T04:40:50.806Z,0.51
2023-03-29T04:41:50.870Z,0.52
2023-03-29T04:42:50.936Z,0.50
2023-03-29T04:43:51.016Z,0.51
2023-03-29T04:44:51.093Z,0.52
2023-03-29T04:45:51.140Z,0.51
2023-03-29T04:46:51.256Z,0.51
2023-03-29T04:47:51.338Z,0.52
2023-03-29T04:48:51.339Z,0.52
2023-03-29T04:49:51.408Z,0.50
2023-03-29T04:50:51.480Z,0.51
2023-03-29T04:51:51.549Z,0.51
2023-03-29T04:52:51.621Z,0.52
2023-03-29T04:53:52.156Z,0.51
2023-03-29T04:54:51.771Z,0.51
2023-03-29T04:55:51.834Z,0.52
2023-03-29T04:56:51.935Z,0.53
2023-03-29T04:57:52.048Z,0.51
2023-03-29T04:58:52.126Z,0.51
2023-03-29T04:59:52.184Z,0.51
2023-03-29T05:00:52.220Z,0.52
2023-03-29T05:01:52.341Z,0.51
2023-03-29T05:02:52.404Z,0.51
2023-03-29T05:03:52.492Z,0.51
2023-03-29T05:04:52.547Z,0.51
2023-03-29T05:05:52.579Z,0.52
2023-03-29T05:06:52.660Z,0.52
2023-03-29T05:07:52.728Z,0.51
2023-03-29T05:08:52.804Z,0.51
2023-03-29T05:09:52.843Z,0.51
2023-03-29T05:10:52.908Z,0.52
2023-03-29T05:11:52.987Z,0.50
2023-03-29T05:12:53.043Z,0.53
2023-03-29T05:13:53.180Z,0.51
2023-03-29T05:14:53.190Z,0.50
2023-03-29T05:15:53.329Z,0.51
2023-03-29T05:16:53.328Z,0.51
2023-03-29T05:17:53.451Z,0.51
2023-03-29T05:18:53.483Z,0.51
2023-03-29T05:19:53.554Z,0.51
2023-03-29T05:20:53.609Z,0.51
2023-03-29T05:21:53.667Z,0.51
2023-03-29T05:22:53.736Z,0.51
2023-03-29T05:23:53.779Z,0.52
2023-03-29T05:24:54.185Z,0.51
2023-03-29T05:25:53.912Z,0.53
2023-03-29T05:26:54.659Z,0.54
2023-03-29T05:27:54.021Z,0.56
2023-03-29T05:28:54.061Z,0.60
2023-03-29T05:29:54.109Z,0.63
2023-03-29T05:30:54.177Z,0.67
2023-03-29T05:31:54.285Z,0.70
2023-03-29T05:32:54.323Z,0.74
2023-03-29T05:33:54.336Z,0.74
2023-03-29T05:34:54.367Z,0.78
2023-03-29T05:35:54.488Z,0.81
2023-03-29T05:36:54.411Z,0.85
2023-03-29T05:37:54.452Z,0.86
2023-03-29T05:38:54.481Z,0.91
2023-03-29T05:39:54.470Z,0.94
2023-03-29T05:40:55.456Z,0.94
2023-03-29T05:41:55.514Z,0.94
2023-03-29T05:42:54.501Z,0.97
2023-03-29T05:43:54.461Z,1.04
2023-03-29T05:44:54.653Z,1.16
2023-03-29T05:45:54.482Z,1.33
2023-03-29T05:46:54.566Z,1.47
2023-03-29T05:47:54.535Z,1.52
2023-03-29T05:48:54.443Z,1.56
2023-03-29T05:49:54.445Z,1.60
2023-03-29T05:50:54.443Z,1.71
2023-03-29T05:51:54.430Z,1.78
2023-03-29T05:52:54.419Z,1.83
2023-03-29T05:53:54.418Z,1.89
2023-03-29T05:54:54.414Z,1.96
2023-03-29T05:55:54.408Z,2.01
2023-03-29T05:56:54.437Z,2.11
2023-03-29T05:57:54.403Z,2.18
2023-03-29T05:58:55.075Z,2.29
2023-03-29T05:59:54.386Z,2.34
2023-03-29T06:00:54.372Z,2.44
2023-03-29T06:01:54.407Z,2.54
2023-03-29T06:02:54.485Z,2.61
2023-03-29T06:03:55.374Z,2.93
2023-03-29T06:04:54.485Z,2.95
2023-03-29T06:05:54.515Z,2.96
2023-03-29T06:06:54.474Z,3.11
2023-03-29T06:07:54.525Z,3.19
2023-03-29T06:08:54.583Z,3.18
2023-03-29T06:09:54.686Z,3.33
2023-03-29T06:10:54.702Z,3.36
2023-03-29T06:11:54.677Z,3.47
2023-03-29T06:12:54.721Z,3.64
2023-03-29T06:13:54.746Z,3.63
2023-03-29T06:14:54.771Z,3.76
2023-03-29T06:15:54.795Z,3.86
2023-03-29T06:16:54.882Z,3.93
2023-03-29T06:17:54.874Z,4.15
2023-03-29T06:18:54.867Z,4.26
2023-03-29T06:19:54.890Z,4.32
2023-03-29T06:20:54.927Z,4.39
2023-03-29T06:21:55.188Z,4.59
2023-03-29T06:22:55.010Z,4.85
2023-03-29T06:23:55.013Z,0.92
2023-03-29T06:24:55.053Z,0.49
2023-03-29T06:25:55.178Z,0.65
2023-03-29T06:26:55.254Z,0.84
2023-03-29T06:27:55.346Z,0.88
2023-03-29T06:28:55.413Z,0.92
2023-03-29T06:29:55.488Z,0.97
2023-03-29T06:30:55.559Z,1.03
2023-03-29T06:31:55.550Z,1.07
2023-03-29T06:32:55.682Z,1.13
2023-03-29T06:33:55.701Z,1.19
2023-03-29T06:34:55.758Z,1.17
2023-03-29T06:35:57.724Z,1.25
2023-03-29T06:36:55.893Z,1.29
2023-03-29T06:37:55.936Z,1.36
2023-03-29T06:38:55.964Z,1.42
2023-03-29T06:39:55.984Z,1.49
2023-03-29T06:40:55.997Z,1.53
2023-03-29T06:41:55.998Z,1.59
2023-03-29T06:42:56.033Z,1.65
2023-03-29T06:43:56.102Z,1.74
2023-03-29T06:44:56.267Z,1.84
2023-03-29T06:45:56.375Z,1.87
2023-03-29T06:46:56.283Z,1.95
2023-03-29T06:47:56.395Z,2.03
2023-03-29T06:48:56.372Z,2.15
2023-03-29T06:49:56.421Z,2.25
2023-03-29T06:50:56.463Z,2.28
2023-03-29T06:51:56.560Z,2.42
2023-03-29T06:52:56.541Z,2.48
2023-03-29T06:53:56.570Z,2.59
2023-03-29T06:54:56.732Z,2.66
2023-03-29T06:55:56.640Z,2.74
2023-03-29T06:56:56.679Z,2.88
2023-03-29T06:57:56.682Z,2.97
2023-03-29T06:58:56.864Z,3.01
2023-03-29T06:59:56.723Z,3.21
2023-03-29T07:00:56.726Z,3.23
2023-03-29T07:01:56.924Z,3.32
2023-03-29T07:02:57.234Z,3.61
2023-03-29T07:03:56.794Z,3.70
2023-03-29T07:04:56.802Z,3.71
2023-03-29T07:05:56.817Z,3.88
2023-03-29T07:06:56.802Z,4.25
2023-03-29T07:07:56.991Z,4.57
2023-03-29T07:08:56.821Z,4.61
2023-03-29T07:09:56.859Z,4.74
2023-03-29T07:10:56.834Z,4.83
2023-03-29T07:11:56.904Z,4.88
2023-03-29T07:12:56.871Z,5.03
2023-03-29T07:13:56.863Z,5.15
2023-03-29T07:14:56.879Z,5.30
2023-03-29T07:15:56.923Z,5.46
2023-03-29T07:16:57.173Z,5.25
2023-03-29T07:17:56.975Z,5.34
2023-03-29T07:18:57.707Z,5.40
2023-03-29T07:19:56.956Z,5.28
2023-03-29T07:20:56.966Z,5.36
2023-03-29T07:21:57.026Z,5.29
2023-03-29T07:22:57.001Z,5.33
2023-03-29T07:23:57.027Z,5.36
2023-03-29T07:24:57.065Z,5.37
2023-03-29T07:25:57.101Z,5.42
2023-03-29T07:27:04.243Z,5.34
2023-03-29T07:27:58.140Z,5.34
2023-03-29T07:28:57.110Z,5.36
2023-03-29T07:29:57.084Z,5.35
2023-03-29T07:30:57.079Z,5.33
2023-03-29T07:31:57.066Z,5.39
2023-03-29T07:32:57.120Z,5.34
2023-03-29T07:33:57.100Z,5.22
2023-03-29T07:34:57.043Z,5.21
2023-03-29T07:35:58.081Z,5.21
2023-03-29T07:36:57.033Z,5.22
2023-03-29T07:37:57.041Z,5.22
2023-03-29T07:38:57.040Z,5.22
2023-03-29T07:39:57.022Z,5.24
2023-03-29T07:40:57.019Z,5.13
2023-03-29T07:41:57.025Z,5.05
2023-03-29T07:42:57.026Z,5.17
2023-03-29T07:43:57.007Z,4.98
2023-03-29T07:44:57.062Z,5.05
2023-03-29T07:45:57.085Z,4.88
2023-03-29T07:46:57.109Z,4.87
2023-03-29T07:47:57.287Z,4.87
2023-03-29T07:48:57.193Z,4.85
2023-03-29T07:49:57.233Z,4.77
2023-03-29T07:50:57.317Z,4.70
2023-03-29T07:51:57.302Z,4.64
2023-03-29T07:52:57.359Z,4.62
2023-03-29T07:53:57.385Z,4.69
2023-03-29T07:54:57.409Z,4.64
2023-03-29T07:55:57.429Z,4.54
2023-03-29T07:56:57.478Z,4.50
2023-03-29T07:57:57.439Z,4.54
2023-03-29T07:58:57.436Z,4.39
2023-03-29T07:59:57.443Z,4.33
2023-03-29T08:00:57.575Z,4.33
2023-03-29T08:01:57.490Z,4.26
2023-03-29T08:02:58.275Z,4.19
2023-03-29T08:03:57.630Z,4.13
2023-03-29T08:04:57.493Z,4.04
2023-03-29T08:05:57.484Z,4.02
2023-03-29T08:06:57.473Z,4.06
2023-03-29T08:07:57.720Z,3.98
2023-03-29T08:08:57.499Z,3.99
2023-03-29T08:09:57.507Z,3.92
2023-03-29T08:10:57.499Z,3.97
2023-03-29T08:11:57.553Z,3.94
2023-03-29T08:12:57.514Z,3.85
2023-03-29T08:13:57.504Z,3.80
2023-03-29T08:14:57.548Z,3.78
2023-03-29T08:15:57.521Z,3.72
2023-03-29T08:16:57.590Z,3.75
2023-03-29T08:17:57.564Z,3.80
2023-03-29T08:18:57.539Z,3.74
2023-03-29T08:19:57.553Z,3.75
2023-03-29T08:20:57.546Z,3.62
2023-03-29T08:21:57.555Z,3.61
2023-03-29T08:22:57.570Z,3.49
2023-03-29T08:23:57.579Z,3.47
2023-03-29T08:24:57.618Z,3.41
2023-03-29T08:25:57.659Z,3.36
2023-03-29T08:26:57.620Z,3.32
2023-03-29T08:27:57.650Z,3.37
2023-03-29T08:28:57.654Z,3.30
2023-03-29T08:29:57.679Z,3.28
2023-03-29T08:30:57.722Z,3.32
2023-03-29T08:31:57.707Z,3.28
2023-03-29T08:32:57.738Z,3.25
2023-03-29T08:33:57.742Z,3.27
2023-03-29T08:34:57.761Z,3.19
2023-03-29T08:35:57.854Z,3.24
2023-03-29T08:36:57.803Z,3.18
2023-03-29T08:37:57.809Z,3.14
2023-03-29T08:38:57.842Z,3.17
2023-03-29T08:39:58.734Z,3.10
2023-03-29T08:40:57.862Z,3.05
2023-03-29T08:41:57.886Z,3.06
2023-03-29T08:42:57.897Z,3.07
2023-03-29T08:43:57.937Z,3.06
2023-03-29T08:44:58.035Z,3.04
2023-03-29T08:45:57.981Z,3.05
2023-03-29T08:46:58.870Z,2.98
2023-03-29T08:47:58.028Z,2.95
2023-03-29T08:48:58.020Z,2.89
2023-03-29T08:49:58.039Z,2.88
2023-03-29T08:50:58.066Z,2.81
2023-03-29T08:51:58.092Z,2.79
2023-03-29T08:52:58.108Z,2.80
2023-03-29T08:53:58.127Z,2.78
2023-03-29T08:54:58.137Z,2.80
2023-03-29T08:55:58.212Z,2.75
2023-03-29T08:56:58.210Z,2.73
2023-03-29T08:57:58.288Z,2.68
2023-03-29T08:58:58.229Z,2.77
2023-03-29T08:59:58.276Z,2.67
2023-03-29T09:00:58.279Z,2.62
2023-03-29T09:01:58.317Z,2.65
2023-03-29T09:02:58.465Z,2.62
2023-03-29T09:03:58.379Z,2.55
2023-03-29T09:04:58.356Z,2.60
2023-03-29T09:05:58.745Z,2.56
2023-03-29T09:06:58.412Z,2.54
2023-03-29T09:07:58.429Z,2.53
2023-03-29T09:08:58.461Z,2.50
2023-03-29T09:09:58.494Z,2.50
2023-03-29T09:10:58.500Z,2.49
2023-03-29T09:11:58.543Z,2.42
2023-03-29T09:12:58.801Z,2.46
2023-03-29T09:13:58.562Z,2.42
2023-03-29T09:14:58.584Z,2.38
2023-03-29T09:15:58.636Z,2.38
2023-03-29T09:16:58.622Z,2.37
2023-03-29T09:17:58.688Z,2.36
2023-03-29T09:18:58.689Z,2.36
2023-03-29T09:19:58.683Z,2.38
2023-03-29T09:20:58.833Z,2.33
2023-03-29T09:21:58.725Z,2.30
2023-03-29T09:22:58.767Z,2.34
2023-03-29T09:23:58.779Z,2.32
2023-03-29T09:24:58.803Z,2.30
2023-03-29T09:25:59.708Z,2.27
2023-03-29T09:26:58.849Z,2.24
2023-03-29T09:27:58.879Z,2.23
2023-03-29T09:28:58.918Z,2.24
2023-03-29T09:29:58.930Z,2.22
2023-03-29T09:30:59.257Z,2.24
2023-03-29T09:31:58.987Z,2.21
2023-03-29T09:32:59.078Z,2.22
2023-03-29T09:33:59.023Z,2.20
2023-03-29T09:34:59.762Z,2.23
2023-03-29T09:35:59.107Z,2.15
2023-03-29T09:36:59.100Z,2.18
2023-03-29T09:37:59.119Z,2.16
2023-03-29T09:38:59.162Z,2.14
2023-03-29T09:39:59.173Z,2.18
2023-03-29T09:40:59.251Z,2.14
2023-03-29T09:41:59.225Z,2.08
2023-03-29T09:42:59.253Z,2.14
2023-03-29T09:43:59.289Z,2.09
2023-03-29T09:44:59.311Z,2.14
2023-03-29T09:45:59.385Z,2.09
2023-03-29T09:46:59.383Z,2.08
2023-03-29T09:47:59.429Z,2.09
2023-03-29T09:48:59.441Z,2.07
2023-03-29T09:49:59.468Z,2.04
2023-03-29T09:50:59.545Z,2.07
2023-03-29T09:51:59.531Z,2.04
2023-03-29T09:52:59.570Z,2.01
2023-03-29T09:53:59.603Z,2.02
2023-03-29T09:54:59.638Z,2.05
2023-03-29T09:55:59.672Z,1.98
2023-03-29T09:56:59.757Z,1.98
2023-03-29T09:57:59.734Z,1.96
2023-03-29T09:59:00.260Z,1.98
2023-03-29T09:59:59.799Z,2.00
2023-03-29T10:00:59.989Z,1.98
2023-03-29T10:02:00.755Z,1.96
2023-03-29T10:03:00.020Z,1.93
2023-03-29T10:04:00.115Z,1.94
2023-03-29T10:04:59.965Z,1.93
2023-03-29T10:06:00.007Z,1.96
2023-03-29T10:07:00.060Z,1.93
2023-03-29T10:08:00.121Z,1.91
2023-03-29T10:09:00.135Z,1.90
2023-03-29T10:10:00.200Z,1.93
2023-03-29T10:11:00.411Z,1.92
2023-03-29T10:12:00.212Z,1.93
2023-03-29T10:13:00.253Z,1.88
2023-03-29T10:14:00.303Z,1.91
2023-03-29T10:15:00.356Z,1.87
2023-03-29T10:16:01.284Z,1.84
2023-03-29T10:17:00.461Z,1.86
2023-03-29T10:18:00.501Z,1.85
2023-03-29T10:19:00.776Z,1.84
2023-03-29T10:20:03.076Z,1.87
2023-03-29T10:21:01.492Z,1.90
2023-03-29T10:22:00.554Z,1.87
2023-03-29T10:23:00.546Z,1.85
2023-03-29T10:24:00.776Z,1.80
2023-03-29T10:25:00.566Z,1.84
2023-03-29T10:26:00.560Z,1.82
2023-03-29T10:27:00.559Z,1.80
2023-03-29T10:28:00.628Z,1.82
2023-03-29T10:29:00.586Z,1.79
2023-03-29T10:30:00.566Z,1.78
2023-03-29T10:31:00.891Z,1.77
2023-03-29T10:32:00.638Z,1.76
2023-03-29T10:33:00.639Z,1.76
2023-03-29T10:34:00.601Z,1.72
2023-03-29T10:35:00.629Z,1.76
2023-03-29T10:36:00.657Z,1.75
2023-03-29T10:37:00.615Z,1.70
2023-03-29T10:38:00.617Z,1.71
2023-03-29T10:39:01.660Z,1.73
2023-03-29T10:40:00.654Z,1.69
2023-03-29T10:41:00.889Z,1.68
2023-03-29T10:42:00.653Z,1.65
2023-03-29T10:43:00.664Z,1.68
2023-03-29T10:44:00.663Z,1.65
2023-03-29T10:45:01.152Z,1.65
2023-03-29T10:46:00.709Z,1.63
2023-03-29T10:47:00.680Z,1.63
2023-03-29T10:48:00.782Z,1.67
2023-03-29T10:49:00.720Z,1.64
2023-03-29T10:50:00.757Z,1.61
2023-03-29T10:51:01.131Z,1.65
2023-03-29T10:52:00.789Z,1.63
2023-03-29T10:53:00.821Z,1.61
2023-03-29T10:54:00.857Z,1.63
2023-03-29T10:55:00.899Z,1.60
2023-03-29T10:56:00.923Z,1.59
2023-03-29T10:57:01.000Z,1.61
2023-03-29T10:58:00.998Z,1.58
2023-03-29T10:59:01.032Z,1.60
2023-03-29T11:00:01.175Z,1.57
2023-03-29T11:01:01.268Z,1.59
2023-03-29T11:02:01.193Z,1.59
2023-03-29T11:03:01.248Z,1.55
2023-03-29T11:04:01.326Z,1.56
2023-03-29T11:05:01.255Z,1.56
2023-03-29T11:06:01.309Z,1.54
2023-03-29T11:07:01.326Z,1.55
2023-03-29T11:08:01.369Z,1.56
2023-03-29T11:09:01.406Z,1.52
2023-03-29T11:10:01.484Z,1.52
2023-03-29T11:11:01.739Z,1.55
2023-03-29T11:12:15.051Z,1.49
2023-03-29T11:13:02.539Z,1.49
2023-03-29T11:14:01.545Z,1.50
2023-03-29T11:15:01.621Z,1.50
2023-03-29T11:16:01.618Z,1.51
2023-03-29T11:17:01.566Z,1.52
2023-03-29T11:18:01.632Z,1.50
2023-03-29T11:19:01.575Z,1.51
2023-03-29T11:20:03.703Z,1.50
2023-03-29T11:21:01.745Z,1.54
2023-03-29T11:22:01.618Z,1.49
2023-03-29T11:23:01.735Z,1.51
2023-03-29T11:24:01.637Z,1.48
2023-03-29T11:25:01.669Z,1.47
2023-03-29T11:26:01.665Z,1.46
2023-03-29T11:27:01.673Z,1.46
2023-03-29T11:28:01.730Z,1.48
2023-03-29T11:29:01.695Z,1.47
2023-03-29T11:30:01.915Z,1.44
2023-03-29T11:31:02.222Z,1.47
2023-03-29T11:32:01.804Z,1.44
2023-03-29T11:33:01.891Z,1.45
2023-03-29T11:34:01.820Z,1.43
2023-03-29T11:35:01.778Z,1.42
2023-03-29T11:36:01.803Z,1.41
2023-03-29T11:37:01.776Z,1.42
2023-03-29T11:38:01.819Z,1.43
2023-03-29T11:39:01.825Z,1.41
2023-03-29T11:40:01.811Z,1.39
2023-03-29T11:41:01.938Z,1.41
2023-03-29T11:42:01.820Z,1.40
2023-03-29T11:43:01.844Z,1.41
2023-03-29T11:44:01.892Z,1.40
2023-03-29T11:45:01.854Z,1.38
2023-03-29T11:46:01.888Z,1.36
2023-03-29T11:47:02.009Z,1.36
2023-03-29T11:48:02.013Z,1.35
2023-03-29T11:49:01.887Z,1.36
2023-03-29T11:50:01.915Z,1.34
2023-03-29T11:51:02.124Z,1.33
2023-03-29T11:52:02.799Z,1.33
2023-03-29T11:53:01.932Z,1.35
2023-03-29T11:54:01.961Z,1.33
2023-03-29T11:55:01.945Z,1.34
2023-03-29T11:56:02.307Z,1.33
2023-03-29T11:57:02.013Z,1.33
2023-03-29T11:58:01.968Z,1.29
2023-03-29T11:59:01.977Z,1.30
2023-03-29T12:00:02.011Z,1.29
2023-03-29T12:01:02.211Z,1.33
2023-03-29T12:02:02.031Z,1.31
2023-03-29T12:03:02.110Z,1.28
2023-03-29T12:04:02.126Z,1.27
2023-03-29T12:05:02.076Z,1.26
2023-03-29T12:06:02.312Z,1.26
2023-03-29T12:07:02.140Z,1.25
2023-03-29T12:08:02.321Z,1.24
2023-03-29T12:09:02.090Z,1.23
2023-03-29T12:10:02.124Z,1.26
2023-03-29T12:11:02.284Z,1.22
2023-03-29T12:12:02.124Z,1.25
2023-03-29T12:13:02.157Z,1.25
2023-03-29T12:14:02.134Z,1.21
2023-03-29T12:15:02.169Z,1.21
2023-03-29T12:16:02.242Z,1.20
2023-03-29T12:17:02.304Z,1.18
2023-03-29T12:18:02.355Z,1.21
2023-03-29T12:19:02.372Z,1.19
2023-03-29T12:20:02.424Z,1.19
2023-03-29T12:21:02.549Z,1.16
2023-03-29T12:22:02.548Z,1.18
2023-03-29T12:23:02.631Z,1.18
2023-03-29T12:24:02.683Z,1.14
2023-03-29T12:25:02.756Z,1.16
2023-03-29T12:26:02.830Z,1.16
2023-03-29T12:27:02.905Z,1.15
2023-03-29T12:28:02.963Z,1.14
2023-03-29T12:29:03.328Z,1.14
2023-03-29T12:30:03.093Z,1.13
2023-03-29T12:31:03.297Z,1.13
2023-03-29T12:32:03.278Z,1.10
2023-03-29T12:33:03.362Z,1.14
2023-03-29T12:34:03.366Z,1.12
2023-03-29T12:35:03.456Z,1.12
2023-03-29T12:36:03.645Z,1.11
2023-03-29T12:37:03.576Z,1.10
2023-03-29T12:38:03.647Z,1.08
2023-03-29T12:39:03.705Z,1.10
2023-03-29T12:40:03.788Z,1.07
2023-03-29T12:41:04.088Z,1.07
2023-03-29T12:42:03.915Z,1.07
2023-03-29T12:43:04.000Z,1.05
2023-03-29T12:44:04.032Z,1.06
2023-03-29T12:45:04.099Z,1.04
2023-03-29T12:46:04.401Z,1.04
2023-03-29T12:47:04.239Z,1.05
2023-03-29T12:48:04.382Z,1.00
2023-03-29T12:49:04.377Z,1.04
2023-03-29T12:50:04.428Z,1.01
2023-03-29T12:51:04.536Z,1.02
2023-03-29T12:52:04.555Z,1.01
2023-03-29T12:53:04.626Z,0.98
2023-03-29T12:54:04.848Z,1.01
2023-03-29T12:55:04.752Z,0.99
2023-03-29T12:56:04.917Z,0.98
2023-03-29T12:57:04.961Z,0.96
2023-03-29T12:58:04.954Z,0.97
2023-03-29T12:59:05.022Z,0.96
2023-03-29T13:00:05.166Z,0.97
2023-03-29T13:01:05.945Z,0.96
2023-03-29T13:02:05.278Z,0.94
2023-03-29T13:03:05.352Z,0.96
2023-03-29T13:04:05.368Z,0.93
2023-03-29T13:05:05.457Z,0.92
2023-03-29T13:06:05.691Z,0.94
2023-03-29T13:07:05.668Z,0.90
2023-03-29T13:08:05.632Z,0.89
2023-03-29T13:09:05.682Z,0.92
2023-03-29T13:10:05.743Z,0.93
2023-03-29T13:11:05.822Z,0.92
2023-03-29T13:12:05.905Z,0.91
2023-03-29T13:13:05.971Z,0.89
2023-03-29T13:14:06.012Z,0.90
2023-03-29T13:15:06.082Z,0.89
2023-03-29T13:16:06.512Z,0.88
2023-03-29T13:17:17.671Z,0.89
2023-03-29T13:18:08.156Z,0.90
2023-03-29T13:19:06.247Z,0.90